Terminal Aerodrome Forecast
Issued by NWS Spokane, WA

Home | Current Version | Previous Version | Text Only | Print | Product List | Glossary On
Versions: 1 2 3 4 5 6 7 8 9 10 11 12 13 14 15 16 17 18 19 20 21 22 23
000
FTUS46 KOTX 292326
TAFLWS
TAF
KLWS 292326Z 3000/3024 31010G16KT P6SM BKN200
     FM300300 28010KT P6SM SCT150 BKN200
     FM300800 26007KT P6SM SCT100 BKN150
     FM301900 30010G17KT P6SM SCT060 BKN090=

USA.gov is the U.S. government's official web portal to all federal, state and local government web resources and services.